sensor_id;sensor_type;location;lat;lon;timestamp;temperature;humidity
44117;DHT22;29781;49.480;8.512;2023-10-19T00:00:19;12.20;99.90
44117;DHT22;29781;49.480;8.512;2023-10-19T00:02:53;12.20;99.90
44117;DHT22;29781;49.480;8.512;2023-10-19T00:05:20;12.30;99.90
44117;DHT22;29781;49.480;8.512;2023-10-19T00:07:46;12.20;99.90
44117;DHT22;29781;49.480;8.512;2023-10-19T00:10:12;12.20;99.90
44117;DHT22;29781;49.480;8.512;2023-10-19T00:12:41;12.20;99.90
44117;DHT22;29781;49.480;8.512;2023-10-19T00:15:07;12.20;99.90
44117;DHT22;29781;49.480;8.512;2023-10-19T00:17:34;12.10;99.90
44117;DHT22;29781;49.480;8.512;2023-10-19T00:20:00;12.20;99.90
44117;DHT22;29781;49.480;8.512;2023-10-19T00:22:51;12.20;99.90
44117;DHT22;29781;49.480;8.512;2023-10-19T00:25:18;12.20;99.90
44117;DHT22;29781;49.480;8.512;2023-10-19T00:27:43;12.20;99.90
44117;DHT22;29781;49.480;8.512;2023-10-19T00:30:13;12.20;99.90
44117;DHT22;29781;49.480;8.512;2023-10-19T00:32:46;12.20;99.90
44117;DHT22;29781;49.480;8.512;2023-10-19T00:35:11;12.20;99.90
44117;DHT22;29781;49.480;8.512;2023-10-19T00:37:54;12.20;99.90
44117;DHT22;29781;49.480;8.512;2023-10-19T00:40:22;12.20;99.90
44117;DHT22;29781;49.480;8.512;2023-10-19T00:43:03;12.20;99.90
44117;DHT22;29781;49.480;8.512;2023-10-19T00:45:33;12.20;99.90
44117;DHT22;29781;49.480;8.512;2023-10-19T00:48:07;12.20;99.90
44117;DHT22;29781;49.480;8.512;2023-10-19T00:50:33;12.20;99.90
44117;DHT22;29781;49.480;8.512;2023-10-19T00:53:01;12.30;99.90
44117;DHT22;29781;49.480;8.512;2023-10-19T00:55:29;12.20;99.90
44117;DHT22;29781;49.480;8.512;2023-10-19T00:57:56;12.30;99.90
44117;DHT22;29781;49.480;8.512;2023-10-19T01:00:22;12.30;99.90
44117;DHT22;29781;49.480;8.512;2023-10-19T01:02:57;12.20;99.90
44117;DHT22;29781;49.480;8.512;2023-10-19T01:05:25;12.20;99.90
44117;DHT22;29781;49.480;8.512;2023-10-19T01:07:57;12.20;99.90
44117;DHT22;29781;49.480;8.512;2023-10-19T01:10:26;12.30;99.90
44117;DHT22;29781;49.480;8.512;2023-10-19T01:12:53;12.30;99.90
44117;DHT22;29781;49.480;8.512;2023-10-19T01:15:21;12.30;99.90
44117;DHT22;29781;49.480;8.512;2023-10-19T01:17:56;12.30;99.90
44117;DHT22;29781;49.480;8.512;2023-10-19T01:20:24;12.30;99.90
44117;DHT22;29781;49.480;8.512;2023-10-19T01:22:56;12.30;99.90
44117;DHT22;29781;49.480;8.512;2023-10-19T01:25:47;12.30;99.90
44117;DHT22;29781;49.480;8.512;2023-10-19T01:28:36;12.30;99.90
44117;DHT22;29781;49.480;8.512;2023-10-19T01:31:10;12.30;99.90
44117;DHT22;29781;49.480;8.512;2023-10-19T01:33:44;12.30;99.90
44117;DHT22;29781;49.480;8.512;2023-10-19T01:36:11;12.30;99.90
44117;DHT22;29781;49.480;8.512;2023-10-19T01:38:38;12.30;99.90
44117;DHT22;29781;49.480;8.512;2023-10-19T01:41:05;12.30;99.90
44117;DHT22;29781;49.480;8.512;2023-10-19T01:43:33;12.30;99.90
44117;DHT22;29781;49.480;8.512;2023-10-19T01:46:00;12.30;99.90
44117;DHT22;29781;49.480;8.512;2023-10-19T01:48:42;12.30;99.90
44117;DHT22;29781;49.480;8.512;2023-10-19T01:51:09;12.30;99.90
44117;DHT22;29781;49.480;8.512;2023-10-19T01:53:40;12.20;99.90
44117;DHT22;29781;49.480;8.512;2023-10-19T01:56:10;12.20;99.90
44117;DHT22;29781;49.480;8.512;2023-10-19T01:58:36;12.20;99.90
44117;DHT22;29781;49.480;8.512;2023-10-19T02:01:03;12.20;99.90
44117;DHT22;29781;49.480;8.512;2023-10-19T02:03:34;12.20;99.90
44117;DHT22;29781;49.480;8.512;2023-10-19T02:06:01;12.30;99.90
44117;DHT22;29781;49.480;8.512;2023-10-19T02:08:36;12.30;99.90
44117;DHT22;29781;49.480;8.512;2023-10-19T02:11:05;12.30;99.90
44117;DHT22;29781;49.480;8.512;2023-10-19T02:13:39;12.30;99.90
44117;DHT22;29781;49.480;8.512;2023-10-19T02:16:05;12.30;99.90
44117;DHT22;29781;49.480;8.512;2023-10-19T02:18:32;12.30;99.90
44117;DHT22;29781;49.480;8.512;2023-10-19T02:21:00;12.30;99.90
44117;DHT22;29781;49.480;8.512;2023-10-19T02:23:28;12.30;99.90
44117;DHT22;29781;49.480;8.512;2023-10-19T02:25:54;12.30;99.90
44117;DHT22;29781;49.480;8.512;2023-10-19T02:28:19;12.30;99.90
44117;DHT22;29781;49.480;8.512;2023-10-19T02:30:54;12.40;99.90
44117;DHT22;29781;49.480;8.512;2023-10-19T02:33:20;12.30;99.90
44117;DHT22;29781;49.480;8.512;2023-10-19T02:35:45;12.30;99.90
44117;DHT22;29781;49.480;8.512;2023-10-19T02:38:13;12.40;99.90
44117;DHT22;29781;49.480;8.512;2023-10-19T02:40:39;12.30;99.90
44117;DHT22;29781;49.480;8.512;2023-10-19T02:43:04;12.40;99.90
44117;DHT22;29781;49.480;8.512;2023-10-19T02:45:30;12.40;99.90
44117;DHT22;29781;49.480;8.512;2023-10-19T02:47:58;12.40;99.90
44117;DHT22;29781;49.480;8.512;2023-10-19T02:50:23;12.40;99.90
44117;DHT22;29781;49.480;8.512;2023-10-19T02:52:52;12.40;99.90
44117;DHT22;29781;49.480;8.512;2023-10-19T02:55:19;12.40;99.90
44117;DHT22;29781;49.480;8.512;2023-10-19T02:57:48;12.40;99.90
44117;DHT22;29781;49.480;8.512;2023-10-19T03:00:15;12.40;99.90
44117;DHT22;29781;49.480;8.512;2023-10-19T03:02:45;12.30;99.90
44117;DHT22;29781;49.480;8.512;2023-10-19T03:05:11;12.40;99.90
44117;DHT22;29781;49.480;8.512;2023-10-19T03:07:45;12.30;99.90
44117;DHT22;29781;49.480;8.512;2023-10-19T03:10:11;12.30;99.90
44117;DHT22;29781;49.480;8.512;2023-10-19T03:12:51;12.30;99.90
44117;DHT22;29781;49.480;8.512;2023-10-19T03:15:18;12.30;99.90
44117;DHT22;29781;49.480;8.512;2023-10-19T03:17:47;12.30;99.90
44117;DHT22;29781;49.480;8.512;2023-10-19T03:20:13;12.30;99.90
44117;DHT22;29781;49.480;8.512;2023-10-19T03:22:42;12.30;99.90
44117;DHT22;29781;49.480;8.512;2023-10-19T03:25:08;12.30;99.90
44117;DHT22;29781;49.480;8.512;2023-10-19T03:28:00;12.30;99.90
44117;DHT22;29781;49.480;8.512;2023-10-19T03:30:34;12.30;99.90
44117;DHT22;29781;49.480;8.512;2023-10-19T03:33:04;12.40;99.90
44117;DHT22;29781;49.480;8.512;2023-10-19T03:35:30;12.50;99.90
44117;DHT22;29781;49.480;8.512;2023-10-19T03:37:55;12.50;99.90
44117;DHT22;29781;49.480;8.512;2023-10-19T03:40:25;12.50;99.90
44117;DHT22;29781;49.480;8.512;2023-10-19T03:42:55;12.50;99.90
44117;DHT22;29781;49.480;8.512;2023-10-19T03:45:20;12.50;99.90
44117;DHT22;29781;49.480;8.512;2023-10-19T03:47:50;12.50;99.90
44117;DHT22;29781;49.480;8.512;2023-10-19T03:50:16;12.50;99.90
44117;DHT22;29781;49.480;8.512;2023-10-19T03:52:46;12.50;99.90
44117;DHT22;29781;49.480;8.512;2023-10-19T03:55:11;12.50;99.90
44117;DHT22;29781;49.480;8.512;2023-10-19T03:57:40;12.50;99.90
44117;DHT22;29781;49.480;8.512;2023-10-19T04:00:08;12.50;99.90
44117;DHT22;29781;49.480;8.512;2023-10-19T04:02:41;12.50;99.90
44117;DHT22;29781;49.480;8.512;2023-10-19T04:05:08;12.50;99.90
44117;DHT22;29781;49.480;8.512;2023-10-19T04:07:35;12.60;99.90
44117;DHT22;29781;49.480;8.512;2023-10-19T04:10:01;12.60;99.90
44117;DHT22;29781;49.480;8.512;2023-10-19T04:12:33;12.60;99.90
44117;DHT22;29781;49.480;8.512;2023-10-19T04:15:02;12.60;99.90
44117;DHT22;29781;49.480;8.512;2023-10-19T04:17:36;12.60;99.90
44117;DHT22;29781;49.480;8.512;2023-10-19T04:20:04;12.60;99.90
44117;DHT22;29781;49.480;8.512;2023-10-19T04:22:39;12.70;99.90
44117;DHT22;29781;49.480;8.512;2023-10-19T04:25:05;12.70;99.90
44117;DHT22;29781;49.480;8.512;2023-10-19T04:27:31;12.70;99.90
44117;DHT22;29781;49.480;8.512;2023-10-19T04:30:01;12.70;99.90
44117;DHT22;29781;49.480;8.512;2023-10-19T04:32:27;12.70;99.90
44117;DHT22;29781;49.480;8.512;2023-10-19T04:34:53;12.70;99.90
44117;DHT22;29781;49.480;8.512;2023-10-19T04:37:18;12.70;99.90
44117;DHT22;29781;49.480;8.512;2023-10-19T04:39:44;12.70;99.90
44117;DHT22;29781;49.480;8.512;2023-10-19T04:42:10;12.70;99.90
44117;DHT22;29781;49.480;8.512;2023-10-19T04:44:35;12.70;99.90
44117;DHT22;29781;49.480;8.512;2023-10-19T04:47:01;12.70;99.90
44117;DHT22;29781;49.480;8.512;2023-10-19T04:49:26;12.70;99.90
44117;DHT22;29781;49.480;8.512;2023-10-19T04:51:53;12.70;99.90
44117;DHT22;29781;49.480;8.512;2023-10-19T04:54:19;12.70;99.90
44117;DHT22;29781;49.480;8.512;2023-10-19T04:56:44;12.70;99.90
44117;DHT22;29781;49.480;8.512;2023-10-19T04:59:10;12.70;99.90
44117;DHT22;29781;49.480;8.512;2023-10-19T05:01:35;12.70;99.90
44117;DHT22;29781;49.480;8.512;2023-10-19T05:04:02;12.80;99.90
44117;DHT22;29781;49.480;8.512;2023-10-19T05:06:28;12.70;99.90
44117;DHT22;29781;49.480;8.512;2023-10-19T05:08:53;12.80;99.90
44117;DHT22;29781;49.480;8.512;2023-10-19T05:11:19;12.80;99.90
44117;DHT22;29781;49.480;8.512;2023-10-19T05:13:44;12.80;99.90
44117;DHT22;29781;49.480;8.512;2023-10-19T05:16:10;12.70;99.90
44117;DHT22;29781;49.480;8.512;2023-10-19T05:18:35;12.80;99.90
44117;DHT22;29781;49.480;8.512;2023-10-19T05:21:01;12.70;99.90
44117;DHT22;29781;49.480;8.512;2023-10-19T05:23:27;12.70;99.90
44117;DHT22;29781;49.480;8.512;2023-10-19T05:25:59;12.70;99.90
44117;DHT22;29781;49.480;8.512;2023-10-19T05:28:25;12.70;99.90
44117;DHT22;29781;49.480;8.512;2023-10-19T05:30:51;12.70;99.90
44117;DHT22;29781;49.480;8.512;2023-10-19T05:33:17;12.70;99.90
44117;DHT22;29781;49.480;8.512;2023-10-19T05:35:49;12.60;99.90
44117;DHT22;29781;49.480;8.512;2023-10-19T05:38:14;12.60;99.90
44117;DHT22;29781;49.480;8.512;2023-10-19T05:40:41;12.60;99.90
44117;DHT22;29781;49.480;8.512;2023-10-19T05:43:08;12.70;99.90
44117;DHT22;29781;49.480;8.512;2023-10-19T05:45:34;12.70;99.90
44117;DHT22;29781;49.480;8.512;2023-10-19T05:48:01;12.70;99.90
44117;DHT22;29781;49.480;8.512;2023-10-19T05:50:29;12.70;99.90
44117;DHT22;29781;49.480;8.512;2023-10-19T05:52:55;12.70;99.90
44117;DHT22;29781;49.480;8.512;2023-10-19T05:55:20;12.70;99.90
44117;DHT22;29781;49.480;8.512;2023-10-19T05:57:49;12.60;99.90
44117;DHT22;29781;49.480;8.512;2023-10-19T06:00:15;12.60;99.90
44117;DHT22;29781;49.480;8.512;2023-10-19T06:02:46;12.60;99.90
44117;DHT22;29781;49.480;8.512;2023-10-19T06:05:13;12.50;99.90
44117;DHT22;29781;49.480;8.512;2023-10-19T06:07:47;12.50;99.90
44117;DHT22;29781;49.480;8.512;2023-10-19T06:10:15;12.60;99.90
44117;DHT22;29781;49.480;8.512;2023-10-19T06:12:42;12.70;99.90
44117;DHT22;29781;49.480;8.512;2023-10-19T06:15:07;12.70;99.90
44117;DHT22;29781;49.480;8.512;2023-10-19T06:17:33;12.70;99.90
44117;DHT22;29781;49.480;8.512;2023-10-19T06:19:59;12.80;99.90
44117;DHT22;29781;49.480;8.512;2023-10-19T06:22:25;12.80;99.90
44117;DHT22;29781;49.480;8.512;2023-10-19T06:24:51;12.70;99.90
44117;DHT22;29781;49.480;8.512;2023-10-19T06:27:17;12.80;99.90
44117;DHT22;29781;49.480;8.512;2023-10-19T06:29:42;12.80;99.90
44117;DHT22;29781;49.480;8.512;2023-10-19T06:32:09;12.90;99.90
44117;DHT22;29781;49.480;8.512;2023-10-19T06:34:34;12.90;99.90
44117;DHT22;29781;49.480;8.512;2023-10-19T06:37:00;12.90;99.90
44117;DHT22;29781;49.480;8.512;2023-10-19T06:39:26;13.10;99.90
44117;DHT22;29781;49.480;8.512;2023-10-19T06:41:52;13.10;99.90
44117;DHT22;29781;49.480;8.512;2023-10-19T06:44:18;13.20;99.90
44117;DHT22;29781;49.480;8.512;2023-10-19T06:46:43;13.20;99.90
44117;DHT22;29781;49.480;8.512;2023-10-19T06:49:09;13.20;99.90
44117;DHT22;29781;49.480;8.512;2023-10-19T06:51:34;13.20;99.90
44117;DHT22;29781;49.480;8.512;2023-10-19T06:54:02;13.20;99.90
44117;DHT22;29781;49.480;8.512;2023-10-19T06:56:28;13.30;99.90
44117;DHT22;29781;49.480;8.512;2023-10-19T06:58:53;13.30;99.90
44117;DHT22;29781;49.480;8.512;2023-10-19T07:01:20;13.30;99.90
44117;DHT22;29781;49.480;8.512;2023-10-19T07:03:50;13.40;99.90
44117;DHT22;29781;49.480;8.512;2023-10-19T07:06:18;13.40;99.90
44117;DHT22;29781;49.480;8.512;2023-10-19T07:08:44;13.40;99.90
44117;DHT22;29781;49.480;8.512;2023-10-19T07:11:10;13.50;99.90
44117;DHT22;29781;49.480;8.512;2023-10-19T07:13:36;13.40;99.90
44117;DHT22;29781;49.480;8.512;2023-10-19T07:16:02;13.50;99.90
44117;DHT22;29781;49.480;8.512;2023-10-19T07:18:29;13.50;99.90
44117;DHT22;29781;49.480;8.512;2023-10-19T07:20:54;13.60;99.90
44117;DHT22;29781;49.480;8.512;2023-10-19T07:23:28;13.50;99.90
44117;DHT22;29781;49.480;8.512;2023-10-19T07:25:54;13.50;99.90
44117;DHT22;29781;49.480;8.512;2023-10-19T07:28:22;13.60;99.90
44117;DHT22;29781;49.480;8.512;2023-10-19T07:30:48;13.60;99.90
44117;DHT22;29781;49.480;8.512;2023-10-19T07:33:14;13.60;99.90
44117;DHT22;29781;49.480;8.512;2023-10-19T07:35:44;13.60;99.90
44117;DHT22;29781;49.480;8.512;2023-10-19T07:38:13;13.60;99.90
44117;DHT22;29781;49.480;8.512;2023-10-19T07:40:39;13.60;99.90
44117;DHT22;29781;49.480;8.512;2023-10-19T07:43:05;13.70;99.90
44117;DHT22;29781;49.480;8.512;2023-10-19T07:45:31;13.70;99.90
44117;DHT22;29781;49.480;8.512;2023-10-19T07:47:58;13.80;99.90
44117;DHT22;29781;49.480;8.512;2023-10-19T07:50:23;13.80;99.90
44117;DHT22;29781;49.480;8.512;2023-10-19T07:52:50;13.80;99.90
44117;DHT22;29781;49.480;8.512;2023-10-19T07:55:17;13.90;99.90
44117;DHT22;29781;49.480;8.512;2023-10-19T07:57:43;13.80;99.90
44117;DHT22;29781;49.480;8.512;2023-10-19T08:00:10;13.90;99.90
44117;DHT22;29781;49.480;8.512;2023-10-19T08:02:37;13.90;99.90
44117;DHT22;29781;49.480;8.512;2023-10-19T08:05:15;13.90;99.90
44117;DHT22;29781;49.480;8.512;2023-10-19T08:07:42;13.90;99.90
44117;DHT22;29781;49.480;8.512;2023-10-19T08:10:10;14.00;99.90
44117;DHT22;29781;49.480;8.512;2023-10-19T08:12:40;14.00;99.90
44117;DHT22;29781;49.480;8.512;2023-10-19T08:15:07;14.10;99.90
44117;DHT22;29781;49.480;8.512;2023-10-19T08:17:33;14.20;99.90
44117;DHT22;29781;49.480;8.512;2023-10-19T08:19:59;14.30;99.90
44117;DHT22;29781;49.480;8.512;2023-10-19T08:22:28;14.50;99.90
44117;DHT22;29781;49.480;8.512;2023-10-19T08:24:54;14.60;99.90
44117;DHT22;29781;49.480;8.512;2023-10-19T08:27:20;14.70;99.90
44117;DHT22;29781;49.480;8.512;2023-10-19T08:29:46;14.90;99.90
44117;DHT22;29781;49.480;8.512;2023-10-19T08:32:12;15.00;99.90
44117;DHT22;29781;49.480;8.512;2023-10-19T08:34:39;15.00;99.90
44117;DHT22;29781;49.480;8.512;2023-10-19T08:37:06;15.10;99.90
44117;DHT22;29781;49.480;8.512;2023-10-19T08:39:32;15.40;99.90
44117;DHT22;29781;49.480;8.512;2023-10-19T08:42:05;15.70;99.90
44117;DHT22;29781;49.480;8.512;2023-10-19T08:44:32;16.00;99.90
44117;DHT22;29781;49.480;8.512;2023-10-19T08:46:58;16.20;99.90
44117;DHT22;29781;49.480;8.512;2023-10-19T08:49:25;16.30;99.90
44117;DHT22;29781;49.480;8.512;2023-10-19T08:51:53;16.10;99.90
44117;DHT22;29781;49.480;8.512;2023-10-19T08:54:20;16.10;99.90
44117;DHT22;29781;49.480;8.512;2023-10-19T08:56:45;16.00;99.90
44117;DHT22;29781;49.480;8.512;2023-10-19T08:59:13;15.80;99.90
44117;DHT22;29781;49.480;8.512;2023-10-19T09:01:41;15.90;99.90
44117;DHT22;29781;49.480;8.512;2023-10-19T09:04:10;15.90;99.90
44117;DHT22;29781;49.480;8.512;2023-10-19T09:06:36;15.80;99.90
44117;DHT22;29781;49.480;8.512;2023-10-19T09:09:12;16.00;99.90
44117;DHT22;29781;49.480;8.512;2023-10-19T09:11:47;16.10;99.90
44117;DHT22;29781;49.480;8.512;2023-10-19T09:14:14;16.00;99.90
44117;DHT22;29781;49.480;8.512;2023-10-19T09:16:55;16.00;99.90
44117;DHT22;29781;49.480;8.512;2023-10-19T09:19:39;15.90;99.90
44117;DHT22;29781;49.480;8.512;2023-10-19T09:22:05;16.50;99.90
44117;DHT22;29781;49.480;8.512;2023-10-19T09:24:34;16.10;99.90
44117;DHT22;29781;49.480;8.512;2023-10-19T09:27:02;16.20;99.90
44117;DHT22;29781;49.480;8.512;2023-10-19T09:29:28;16.40;99.90
44117;DHT22;29781;49.480;8.512;2023-10-19T09:31:55;16.40;99.90
44117;DHT22;29781;49.480;8.512;2023-10-19T09:34:24;16.50;99.90
44117;DHT22;29781;49.480;8.512;2023-10-19T09:36:57;16.80;99.90
44117;DHT22;29781;49.480;8.512;2023-10-19T09:39:23;17.00;99.90
44117;DHT22;29781;49.480;8.512;2023-10-19T09:41:50;17.20;99.90
44117;DHT22;29781;49.480;8.512;2023-10-19T09:44:21;17.20;99.90
44117;DHT22;29781;49.480;8.512;2023-10-19T09:46:50;17.20;99.90
44117;DHT22;29781;49.480;8.512;2023-10-19T09:49:17;17.20;99.90
44117;DHT22;29781;49.480;8.512;2023-10-19T09:51:44;17.20;99.90
44117;DHT22;29781;49.480;8.512;2023-10-19T09:54:20;17.10;99.90
44117;DHT22;29781;49.480;8.512;2023-10-19T09:56:55;17.30;99.90
44117;DHT22;29781;49.480;8.512;2023-10-19T09:59:29;17.20;99.90
44117;DHT22;29781;49.480;8.512;2023-10-19T10:02:07;17.20;99.90
44117;DHT22;29781;49.480;8.512;2023-10-19T10:04:34;17.10;99.90
44117;DHT22;29781;49.480;8.512;2023-10-19T10:07:05;17.10;99.90
44117;DHT22;29781;49.480;8.512;2023-10-19T10:09:34;17.10;99.90
44117;DHT22;29781;49.480;8.512;2023-10-19T10:12:24;17.10;99.90
44117;DHT22;29781;49.480;8.512;2023-10-19T10:15:00;17.20;99.90
44117;DHT22;29781;49.480;8.512;2023-10-19T10:17:28;17.40;99.90
44117;DHT22;29781;49.480;8.512;2023-10-19T10:19:55;17.40;99.90
44117;DHT22;29781;49.480;8.512;2023-10-19T10:22:22;17.40;99.90
44117;DHT22;29781;49.480;8.512;2023-10-19T10:24:54;17.40;99.90
44117;DHT22;29781;49.480;8.512;2023-10-19T10:27:21;17.30;99.90
44117;DHT22;29781;49.480;8.512;2023-10-19T10:30:00;17.30;99.90
44117;DHT22;29781;49.480;8.512;2023-10-19T10:32:43;17.30;99.90
44117;DHT22;29781;49.480;8.512;2023-10-19T10:35:09;17.30;99.90
44117;DHT22;29781;49.480;8.512;2023-10-19T10:37:37;17.20;99.90
44117;DHT22;29781;49.480;8.512;2023-10-19T10:40:03;17.20;99.90
44117;DHT22;29781;49.480;8.512;2023-10-19T10:42:31;17.20;99.90
44117;DHT22;29781;49.480;8.512;2023-10-19T10:44:57;17.20;99.90
44117;DHT22;29781;49.480;8.512;2023-10-19T10:47:23;17.20;99.90
44117;DHT22;29781;49.480;8.512;2023-10-19T10:49:59;17.20;99.90
44117;DHT22;29781;49.480;8.512;2023-10-19T10:52:25;17.20;99.90
44117;DHT22;29781;49.480;8.512;2023-10-19T10:54:52;17.20;99.90
44117;DHT22;29781;49.480;8.512;2023-10-19T10:57:19;17.20;99.90
44117;DHT22;29781;49.480;8.512;2023-10-19T11:00:04;17.10;99.90
44117;DHT22;29781;49.480;8.512;2023-10-19T11:02:30;17.10;99.90
44117;DHT22;29781;49.480;8.512;2023-10-19T11:04:55;17.10;99.90
44117;DHT22;29781;49.480;8.512;2023-10-19T11:07:21;17.00;99.90
44117;DHT22;29781;49.480;8.512;2023-10-19T11:09:47;17.00;99.90
44117;DHT22;29781;49.480;8.512;2023-10-19T11:12:14;17.00;99.90
44117;DHT22;29781;49.480;8.512;2023-10-19T11:14:55;17.00;99.90
44117;DHT22;29781;49.480;8.512;2023-10-19T11:17:21;17.00;99.90
44117;DHT22;29781;49.480;8.512;2023-10-19T11:19:58;16.90;99.90
44117;DHT22;29781;49.480;8.512;2023-10-19T11:22:25;17.00;99.90
44117;DHT22;29781;49.480;8.512;2023-10-19T11:24:52;17.00;99.90
44117;DHT22;29781;49.480;8.512;2023-10-19T11:27:25;17.00;99.90
44117;DHT22;29781;49.480;8.512;2023-10-19T11:29:58;17.10;99.90
44117;DHT22;29781;49.480;8.512;2023-10-19T11:32:25;17.00;99.90
44117;DHT22;29781;49.480;8.512;2023-10-19T11:34:53;16.90;99.90
44117;DHT22;29781;49.480;8.512;2023-10-19T11:37:19;16.90;99.90
44117;DHT22;29781;49.480;8.512;2023-10-19T11:39:44;16.90;99.90
44117;DHT22;29781;49.480;8.512;2023-10-19T11:42:11;16.90;99.90
44117;DHT22;29781;49.480;8.512;2023-10-19T11:44:37;16.90;99.90
44117;DHT22;29781;49.480;8.512;2023-10-19T11:47:03;16.80;99.90
44117;DHT22;29781;49.480;8.512;2023-10-19T11:49:29;16.80;99.90
44117;DHT22;29781;49.480;8.512;2023-10-19T11:51:54;16.80;99.90
44117;DHT22;29781;49.480;8.512;2023-10-19T11:54:20;16.80;99.90
44117;DHT22;29781;49.480;8.512;2023-10-19T11:56:46;16.80;99.90
44117;DHT22;29781;49.480;8.512;2023-10-19T11:59:11;16.80;99.90
44117;DHT22;29781;49.480;8.512;2023-10-19T12:01:38;16.80;99.90
44117;DHT22;29781;49.480;8.512;2023-10-19T12:04:11;16.80;99.90
44117;DHT22;29781;49.480;8.512;2023-10-19T12:06:36;16.80;99.90
44117;DHT22;29781;49.480;8.512;2023-10-19T12:09:02;16.80;99.90
44117;DHT22;29781;49.480;8.512;2023-10-19T12:11:40;16.90;99.90
44117;DHT22;29781;49.480;8.512;2023-10-19T12:14:06;16.90;99.90
44117;DHT22;29781;49.480;8.512;2023-10-19T12:16:36;16.90;99.90
44117;DHT22;29781;49.480;8.512;2023-10-19T12:19:02;16.90;99.90
44117;DHT22;29781;49.480;8.512;2023-10-19T12:21:28;16.80;99.90
44117;DHT22;29781;49.480;8.512;2023-10-19T12:23:56;16.80;99.90
44117;DHT22;29781;49.480;8.512;2023-10-19T12:26:22;16.80;99.90
44117;DHT22;29781;49.480;8.512;2023-10-19T12:28:48;16.70;99.90
44117;DHT22;29781;49.480;8.512;2023-10-19T12:31:14;16.70;99.90
44117;DHT22;29781;49.480;8.512;2023-10-19T12:33:40;16.60;99.90
44117;DHT22;29781;49.480;8.512;2023-10-19T12:36:07;16.60;99.90
44117;DHT22;29781;49.480;8.512;2023-10-19T12:38:51;16.50;99.90
44117;DHT22;29781;49.480;8.512;2023-10-19T12:41:18;16.50;99.90
44117;DHT22;29781;49.480;8.512;2023-10-19T12:43:44;16.50;99.90
44117;DHT22;29781;49.480;8.512;2023-10-19T12:46:11;16.50;99.90
44117;DHT22;29781;49.480;8.512;2023-10-19T12:48:39;16.60;99.90
44117;DHT22;29781;49.480;8.512;2023-10-19T12:51:05;16.50;99.90
44117;DHT22;29781;49.480;8.512;2023-10-19T12:53:32;16.50;99.90
44117;DHT22;29781;49.480;8.512;2023-10-19T12:55:59;16.50;99.90
44117;DHT22;29781;49.480;8.512;2023-10-19T12:58:25;16.50;99.90
44117;DHT22;29781;49.480;8.512;2023-10-19T13:00:53;16.50;99.90
44117;DHT22;29781;49.480;8.512;2023-10-19T13:03:20;16.50;99.90
44117;DHT22;29781;49.480;8.512;2023-10-19T13:05:47;16.50;99.90
44117;DHT22;29781;49.480;8.512;2023-10-19T13:08:15;16.40;99.90
44117;DHT22;29781;49.480;8.512;2023-10-19T13:10:45;16.40;99.90
44117;DHT22;29781;49.480;8.512;2023-10-19T13:13:12;16.40;99.90
44117;DHT22;29781;49.480;8.512;2023-10-19T13:15:39;16.40;99.90
44117;DHT22;29781;49.480;8.512;2023-10-19T13:18:07;16.40;99.90
44117;DHT22;29781;49.480;8.512;2023-10-19T13:20:35;16.50;99.90
44117;DHT22;29781;49.480;8.512;2023-10-19T13:23:02;16.40;99.90
44117;DHT22;29781;49.480;8.512;2023-10-19T13:25:31;16.50;99.90
44117;DHT22;29781;49.480;8.512;2023-10-19T13:28:16;16.50;99.90
44117;DHT22;29781;49.480;8.512;2023-10-19T13:30:54;16.50;99.90
44117;DHT22;29781;49.480;8.512;2023-10-19T13:33:20;16.50;99.90
44117;DHT22;29781;49.480;8.512;2023-10-19T13:35:53;16.50;99.90
44117;DHT22;29781;49.480;8.512;2023-10-19T13:38:19;16.50;99.90
44117;DHT22;29781;49.480;8.512;2023-10-19T13:40:48;16.50;99.90
44117;DHT22;29781;49.480;8.512;2023-10-19T13:43:16;16.50;99.90
44117;DHT22;29781;49.480;8.512;2023-10-19T13:45:44;16.50;99.90
44117;DHT22;29781;49.480;8.512;2023-10-19T13:48:10;16.50;99.90
44117;DHT22;29781;49.480;8.512;2023-10-19T13:50:49;16.50;99.90
44117;DHT22;29781;49.480;8.512;2023-10-19T13:53:18;16.50;99.90
44117;DHT22;29781;49.480;8.512;2023-10-19T13:55:44;16.50;99.90
44117;DHT22;29781;49.480;8.512;2023-10-19T13:58:10;16.50;99.90
44117;DHT22;29781;49.480;8.512;2023-10-19T14:00:37;16.40;99.90
44117;DHT22;29781;49.480;8.512;2023-10-19T14:03:06;16.40;99.90
44117;DHT22;29781;49.480;8.512;2023-10-19T14:05:39;16.40;99.90
44117;DHT22;29781;49.480;8.512;2023-10-19T14:08:06;16.30;99.90
44117;DHT22;29781;49.480;8.512;2023-10-19T14:10:33;16.30;99.90
44117;DHT22;29781;49.480;8.512;2023-10-19T14:12:58;16.40;99.90
44117;DHT22;29781;49.480;8.512;2023-10-19T14:15:24;16.40;99.90
44117;DHT22;29781;49.480;8.512;2023-10-19T14:17:51;16.50;99.90
44117;DHT22;29781;49.480;8.512;2023-10-19T14:20:17;16.40;99.90
44117;DHT22;29781;49.480;8.512;2023-10-19T14:22:45;16.40;99.90
44117;DHT22;29781;49.480;8.512;2023-10-19T14:25:12;16.40;99.90
44117;DHT22;29781;49.480;8.512;2023-10-19T14:27:42;16.20;99.90
44117;DHT22;29781;49.480;8.512;2023-10-19T14:30:10;16.00;99.90
44117;DHT22;29781;49.480;8.512;2023-10-19T14:32:47;15.90;99.90
44117;DHT22;29781;49.480;8.512;2023-10-19T14:35:13;15.80;99.90
44117;DHT22;29781;49.480;8.512;2023-10-19T14:37:43;15.90;99.90
44117;DHT22;29781;49.480;8.512;2023-10-19T14:40:13;16.10;99.90
44117;DHT22;29781;49.480;8.512;2023-10-19T14:42:43;16.20;99.90
44117;DHT22;29781;49.480;8.512;2023-10-19T14:45:11;16.20;99.90
44117;DHT22;29781;49.480;8.512;2023-10-19T14:47:39;16.20;99.90
44117;DHT22;29781;49.480;8.512;2023-10-19T14:50:11;16.30;99.90
44117;DHT22;29781;49.480;8.512;2023-10-19T14:52:40;16.30;99.90
44117;DHT22;29781;49.480;8.512;2023-10-19T14:55:06;16.30;99.90
44117;DHT22;29781;49.480;8.512;2023-10-19T14:57:33;16.20;99.90
44117;DHT22;29781;49.480;8.512;2023-10-19T14:59:59;16.00;99.90
44117;DHT22;29781;49.480;8.512;2023-10-19T15:02:35;16.10;99.90
44117;DHT22;29781;49.480;8.512;2023-10-19T15:05:01;16.20;99.90
44117;DHT22;29781;49.480;8.512;2023-10-19T15:07:26;16.20;99.90
44117;DHT22;29781;49.480;8.512;2023-10-19T15:09:52;16.30;99.90
44117;DHT22;29781;49.480;8.512;2023-10-19T15:12:18;16.30;99.90
44117;DHT22;29781;49.480;8.512;2023-10-19T15:14:44;16.30;99.90
44117;DHT22;29781;49.480;8.512;2023-10-19T15:17:10;16.30;99.90
44117;DHT22;29781;49.480;8.512;2023-10-19T15:19:36;16.30;99.90
44117;DHT22;29781;49.480;8.512;2023-10-19T15:22:02;16.30;99.90
44117;DHT22;29781;49.480;8.512;2023-10-19T15:24:27;16.30;99.90
44117;DHT22;29781;49.480;8.512;2023-10-19T15:26:53;16.50;99.90
44117;DHT22;29781;49.480;8.512;2023-10-19T15:29:18;16.60;99.90
44117;DHT22;29781;49.480;8.512;2023-10-19T15:31:44;16.70;99.90
44117;DHT22;29781;49.480;8.512;2023-10-19T15:34:10;16.70;99.90
44117;DHT22;29781;49.480;8.512;2023-10-19T15:36:35;16.60;99.90